Time;durP1;ratioP1;P1;durP2;ratioP2;P2;SDS_P1;SDS_P2;PMS_P1;PMS_P2;Temp;Humidity;BMP_temperature;BMP_pressure;BME280_temperature;BME280_humidity;BME280_pressure;Samples;Min_cycle;Max_cycle;Signal;HPM_P1;HPM_P2
2022/12/21 00:01:41;;;;;;;46.33;21.63;;;;;;;;;;5114800;28;20188;-82
2022/12/21 00:04:08;;;;;;;46.60;22.20;;;;;;;;;;5116001;28;20062;-82
2022/12/21 00:06:35;;;;;;;186.63;26.25;;;;;;;;;;5114638;28;20083;-82
2022/12/21 00:09:03;;;;;;;100.25;24.10;;;;;;;;;;5114536;28;20130;-82
2022/12/21 00:11:30;;;;;;;92.00;24.23;;;;;;;;;;5115725;27;20047;-82
2022/12/21 00:13:57;;;;;;;63.65;23.60;;;;;;;;;;5134899;27;20053;-83
2022/12/21 00:16:24;;;;;;;117.72;23.27;;;;;;;;;;5118004;27;20051;-82
2022/12/21 00:18:50;;;;;;;436.25;35.22;;;;;;;;;;5098374;28;20364;-82
2022/12/21 00:21:18;;;;;;;310.67;26.80;;;;;;;;;;5099114;28;20134;-82
2022/12/21 00:23:46;;;;;;;360.30;25.92;;;;;;;;;;5116858;27;20055;-82
2022/12/21 00:26:13;;;;;;;366.83;27.70;;;;;;;;;;5101443;27;20054;-82
2022/12/21 00:28:39;;;;;;;475.20;31.58;;;;;;;;;;5116782;27;20085;-82
2022/12/21 00:31:15;;;;;;;423.02;31.58;;;;;;;;;;5112173;28;20052;-83
2022/12/21 00:33:41;;;;;;;426.63;29.20;;;;;;;;;;5120361;27;20062;-83
2022/12/21 00:36:08;;;;;;;345.50;30.73;;;;;;;;;;5102143;28;20048;-82
2022/12/21 00:38:34;;;;;;;389.48;31.73;;;;;;;;;;5077133;28;20056;-82
2022/12/21 00:41:02;;;;;;;354.27;26.70;;;;;;;;;;5113625;28;20383;-82
2022/12/21 00:43:28;;;;;;;311.25;26.48;;;;;;;;;;5113867;28;20051;-82
2022/12/21 00:45:55;;;;;;;309.77;27.10;;;;;;;;;;5115053;28;20109;-82
2022/12/21 00:48:21;;;;;;;246.07;25.65;;;;;;;;;;5113615;28;20142;-82
2022/12/21 00:50:47;;;;;;;256.67;24.50;;;;;;;;;;5115037;28;20075;-82
2022/12/21 00:53:14;;;;;;;342.88;29.85;;;;;;;;;;5093613;28;20431;-82
2022/12/21 00:55:41;;;;;;;262.05;27.05;;;;;;;;;;5076444;28;20070;-82
2022/12/21 00:58:07;;;;;;;298.50;27.20;;;;;;;;;;5094229;28;20090;-82
2022/12/21 01:00:33;;;;;;;244.38;26.25;;;;;;;;;;5076637;28;20443;-82
2022/12/21 01:02:59;;;;;;;493.38;35.95;;;;;;;;;;5075611;28;20048;-83
2022/12/21 01:05:27;;;;;;;360.63;29.30;;;;;;;;;;5076383;28;20100;-82
2022/12/21 01:07:53;;;;;;;299.08;25.65;;;;;;;;;;5059580;28;20048;-82
2022/12/21 01:10:19;;;;;;;269.42;29.90;;;;;;;;;;5065902;28;20052;-82
2022/12/21 01:12:45;;;;;;;190.63;22.95;;;;;;;;;;5089714;28;20055;-82
2022/12/21 01:15:11;;;;;;;218.82;25.30;;;;;;;;;;5122329;27;20150;-82
2022/12/21 01:17:37;;;;;;;213.10;24.42;;;9.90;99.90;;;;;;5110392;28;20354;-82
2022/12/21 01:20:03;;;;;;;217.82;26.27;;;;;;;;;;5097611;28;20063;-83
2022/12/21 01:22:29;;;;;;;131.95;24.08;;;;;;;;;;5098201;28;20058;-82
2022/12/21 01:24:55;;;;;;;127.22;21.77;;;;;;;;;;5106642;27;20046;-82
2022/12/21 01:27:21;;;;;;;106.88;19.70;;;;;;;;;;5106771;28;20126;-82
2022/12/21 01:29:48;;;;;;;106.63;22.05;;;;;;;;;;5079337;27;20087;-82
2022/12/21 01:32:15;;;;;;;142.98;21.88;;;;;;;;;;5114579;28;20055;-81
2022/12/21 01:34:41;;;;;;;116.10;21.60;;;;;;;;;;5127466;27;20454;-80
2022/12/21 01:37:07;;;;;;;147.48;22.92;;;;;;;;;;5098525;27;20050;-81
2022/12/21 01:39:33;;;;;;;95.45;21.55;;;;;;;;;;5125973;27;20051;-81
2022/12/21 01:41:59;;;;;;;157.13;22.98;;;;;;;;;;5113893;28;20400;-81
2022/12/21 01:44:55;;;;;;;118.60;22.98;;;7.80;99.90;;;;;;5103487;28;20056;-81
2022/12/21 01:47:25;;;;;;;134.10;20.13;;;;;;;;;;5113117;28;20052;-81
2022/12/21 01:50:02;;;;;;;131.82;22.25;;;7.50;99.90;;;;;;5112465;28;20158;-81
2022/12/21 01:52:29;;;;;;;170.90;20.83;;;;;;;;;;5112650;28;20056;-81
2022/12/21 01:54:57;;;;;;;222.27;24.20;;;;;;;;;;5112434;28;20402;-81
2022/12/21 01:57:24;;;;;;;96.22;21.25;;;;;;;;;;5097886;28;20055;-81
2022/12/21 01:59:56;;;;;;;145.60;21.88;;;8.40;99.90;;;;;;5095526;28;20448;-81
2022/12/21 02:02:24;;;;;;;161.80;19.50;;;;;;;;;;5113591;28;20059;-81
2022/12/21 02:04:51;;;;;;;241.88;21.80;;;;;;;;;;5093992;28;20868;-81
2022/12/21 02:07:19;;;;;;;300.75;24.85;;;;;;;;;;5114009;28;20081;-81
2022/12/21 02:09:46;;;;;;;339.30;27.35;;;;;;;;;;5114326;28;20491;-81
2022/12/21 02:12:15;;;;;;;214.65;20.98;;;;;;;;;;5078726;28;20113;-81
2022/12/21 02:14:44;;;;;;;304.75;23.48;;;7.50;99.90;;;;;;5096374;28;20135;-82
2022/12/21 02:17:37;;;;;;;271.05;17.80;;;7.30;99.90;;;;;;5107300;27;20058;-81
2022/12/21 02:20:21;;;;;;;258.10;22.40;;;7.30;99.90;;;;;;5123990;27;20055;-82
2022/12/21 02:23:18;;;;;;;347.30;24.50;;;7.20;99.90;;;;;;5119711;27;20047;-81
2022/12/21 02:25:59;;;;;;;187.27;21.35;;;7.10;99.90;;;;;;5113273;28;20519;-81
2022/12/21 02:28:31;;;;;;;248.63;19.80;;;7.00;99.90;;;;;;5112785;28;20074;-81
2022/12/21 02:30:57;;;;;;;152.32;20.77;;;;;;;;;;5122351;27;20380;-81
2022/12/21 02:33:32;;;;;;;271.58;21.95;;;;;;;;;;5122935;28;20085;-81
2022/12/21 02:36:05;;;;;;;204.13;22.85;;;8.30;99.90;;;;;;5129843;27;20096;-81
2022/12/21 02:38:32;;;;;;;291.50;24.90;;;;;;;;;;5102948;28;20063;-82
2022/12/21 02:41:01;;;;;;;104.85;20.48;;;;;;;;;;5078137;28;20108;-81
2022/12/21 02:46:33;;;;;;;224.43;20.60;;;;;;;;;;5112250;28;20085;-81
2022/12/21 02:49:04;;;;;;;242.88;24.85;;;;;;;;;;5101635;28;20130;-82
2022/12/21 02:51:45;;;;;;;172.32;19.80;;;;;;;;;;5122684;28;20138;-80
2022/12/21 02:54:12;;;;;;;191.38;19.85;;;;;;;;;;5092068;28;20066;-82
2022/12/21 02:56:38;;;;;;;178.73;18.38;;;;;;;;;;5091247;28;20048;-82
2022/12/21 02:59:07;;;;;;;169.90;18.63;;;;;;;;;;5094581;28;20138;-81
2022/12/21 03:02:10;;;;;;;239.15;20.20;;;7.00;99.90;;;;;;5100793;28;20050;-82
2022/12/21 03:05:01;;;;;;;233.30;21.98;;;6.70;99.90;;;;;;5112257;28;20054;-82
2022/12/21 03:07:33;;;;;;;237.90;20.70;;;;;;;;;;5115111;28;20050;-82
2022/12/21 03:10:02;;;;;;;167.50;19.42;;;6.60;99.90;;;;;;5106083;28;20055;-82
2022/12/21 03:12:39;;;;;;;275.73;19.88;;;;;;;;;;5095849;28;20081;-82
2022/12/21 03:15:11;;;;;;;169.73;18.60;;;;;;;;;;5113667;28;20403;-82
2022/12/21 03:17:55;;;;;;;261.40;17.75;;;6.60;99.90;;;;;;5111865;28;20044;-82
2022/12/21 03:20:44;;;;;;;196.77;20.10;;;6.70;99.90;;;;;;5106194;28;20465;-82
2022/12/21 03:23:17;;;;;;;279.10;22.33;;;;;;;;;;5099623;28;20052;-82
2022/12/21 03:25:46;;;;;;;168.07;17.50;;;;;;;;;;5093561;28;20055;-81
2022/12/21 03:28:14;;;;;;;304.30;20.73;;;;;;;;;;5112538;28;20109;-82
2022/12/21 03:30:43;;;;;;;244.00;21.38;;;;;;;;;;5111227;28;20090;-82
2022/12/21 03:33:16;;;;;;;174.65;19.13;;;6.60;99.90;;;;;;5117572;28;20051;-82
2022/12/21 03:36:03;;;;;;;221.25;20.10;;;;;;;;;;5121240;28;20179;-82
2022/12/21 03:38:35;;;;;;;252.85;22.48;;;;;;;;;;5105647;28;20441;-82
2022/12/21 03:41:03;;;;;;;146.88;17.05;;;;;;;;;;5077822;28;20052;-82
2022/12/21 03:43:31;;;;;;;169.75;18.83;;;;;;;;;;5113230;28;20059;-82
2022/12/21 03:46:00;;;;;;;135.73;17.13;;;;;;;;;;5111127;28;20134;-82
2022/12/21 03:48:36;;;;;;;161.63;19.50;;;;;;;;;;5112170;28;20052;-81
2022/12/21 03:51:08;;;;;;;163.75;18.83;;;;;;;;;;5111239;28;20434;-82
2022/12/21 03:53:43;;;;;;;237.30;21.13;;;;;;;;;;5113864;28;20055;-82
2022/12/21 03:56:11;;;;;;;211.82;20.15;;;;;;;;;;5099893;28;20109;-82
2022/12/21 03:58:37;;;;;;;231.73;20.67;;;;;;;;;;5098379;28;20512;-81
2022/12/21 04:01:19;;;;;;;155.35;19.08;;;;;;;;;;5097682;28;20083;-82
2022/12/21 04:03:47;;;;;;;247.27;21.05;;;;;;;;;;5080470;28;20408;-81
2022/12/21 04:06:19;;;;;;;242.88;21.58;;;;;;;;;;5116327;28;20377;-81
2022/12/21 04:08:46;;;;;;;212.75;19.95;;;;;;;;;;5097608;28;20466;-82
2022/12/21 04:12:36;;;;;;;160.57;17.42;;;;;;;;;;5094833;28;20138;-82
2022/12/21 04:13:59;;;;;;;149.73;16.27;;;;;;;;;;5115466;28;20161;-82
2022/12/21 04:16:25;;;;;;;217.00;18.10;;;;;;;;;;5116602;27;20048;-81
2022/12/21 04:21:36;;;;;;;82.43;13.82;;;6.50;99.90;;;;;;5101827;27;20043;-81
2022/12/21 04:29:30;;;;;;;207.80;17.52;;;;;;;;;;5115199;28;20060;-82
2022/12/21 04:31:56;;;;;;;117.97;14.95;;;;;;;;;;5113953;28;20055;-82
2022/12/21 04:34:22;;;;;;;152.60;17.15;;;;;;;;;;5096642;28;20043;-81
2022/12/21 04:39:33;;;;;;;100.75;14.38;;;;;;;;;;5116295;28;20059;-81
2022/12/21 04:41:59;;;;;;;165.15;15.45;;;;;;;;;;5097615;28;20408;-82
2022/12/21 04:44:25;;;;;;;182.38;16.60;;;;;;;;;;5096580;28;20498;-81
2022/12/21 04:46:51;;;;;;;151.02;16.90;;;;;;;;;;5113869;28;20097;-82
2022/12/21 04:49:17;;;;;;;155.82;16.77;;;;;;;;;;5114897;28;20678;-81
2022/12/21 04:51:43;;;;;;;174.60;16.30;;;;;;;;;;5113735;28;20094;-82
2022/12/21 04:54:09;;;;;;;249.93;19.92;;;;;;;;;;5114714;28;20055;-81
2022/12/21 04:56:35;;;;;;;210.55;19.60;;;;;;;;;;5114285;28;20047;-81
2022/12/21 04:59:02;;;;;;;193.77;16.35;;;;;;;;;;5115429;28;20043;-81
2022/12/21 05:01:28;;;;;;;147.65;15.38;;;;;;;;;;5113597;28;20085;-81
2022/12/21 05:03:56;;;;;;;221.48;20.02;;;;;;;;;;5112711;28;20078;-81
2022/12/21 05:06:22;;;;;;;210.35;21.08;;;;;;;;;;5113403;28;20044;-81
2022/12/21 05:08:48;;;;;;;229.38;17.60;;;;;;;;;;5115205;28;20112;-82
2022/12/21 05:11:19;;;;;;;161.70;14.57;;;;;;;;;;5114067;28;20039;-81
2022/12/21 05:13:46;;;;;;;172.35;15.00;;;;;;;;;;5113951;28;20416;-81
2022/12/21 05:16:14;;;;;;;258.25;19.02;;;;;;;;;;5113274;28;20043;-81
2022/12/21 05:18:40;;;;;;;217.65;18.33;;;;;;;;;;5101965;28;20452;-81
2022/12/21 05:21:06;;;;;;;139.77;15.05;;;;;;;;;;5097655;28;20101;-81
2022/12/21 05:23:33;;;;;;;196.00;17.08;;;;;;;;;;5114362;28;20047;-81
2022/12/21 05:26:00;;;;;;;148.80;15.38;;;;;;;;;;5114053;28;20043;-81
2022/12/21 05:28:26;;;;;;;121.40;15.82;;;;;;;;;;5113148;28;20051;-81
2022/12/21 05:30:52;;;;;;;133.43;14.57;;;;;;;;;;5112623;28;20047;-82
2022/12/21 05:33:18;;;;;;;167.88;14.57;;;;;;;;;;5123041;27;20051;-81
2022/12/21 05:35:44;;;;;;;181.52;14.40;;;;;;;;;;5114130;27;20047;-81
2022/12/21 05:38:10;;;;;;;199.30;18.08;;;;;;;;;;5101629;28;20180;-81
2022/12/21 05:40:36;;;;;;;169.57;17.15;;;;;;;;;;5114187;28;20056;-81
2022/12/21 05:43:03;;;;;;;175.98;17.25;;;;;;;;;;5108185;28;20465;-81
2022/12/21 05:45:29;;;;;;;196.45;14.45;;;;;;;;;;5095345;28;20545;-80
2022/12/21 05:47:55;;;;;;;106.80;13.10;;;;;;;;;;5092367;28;20055;-81
2022/12/21 05:50:22;;;;;;;110.25;13.98;;;;;;;;;;5092479;28;20496;-81
2022/12/21 05:52:48;;;;;;;141.85;15.40;;;;;;;;;;5092919;28;20056;-81
2022/12/21 05:55:15;;;;;;;98.18;11.90;;;;;;;;;;5095802;28;20529;-82
2022/12/21 05:57:42;;;;;;;110.03;11.95;;;;;;;;;;5096151;28;20062;-81
2022/12/21 06:00:08;;;;;;;139.45;13.20;;;;;;;;;;5095349;28;20055;-82
2022/12/21 06:02:34;;;;;;;125.55;14.02;;;;;;;;;;5095841;28;20051;-82
2022/12/21 06:05:00;;;;;;;121.93;14.40;;;;;;;;;;5094952;28;20518;-82
2022/12/21 06:07:26;;;;;;;191.77;16.25;;;;;;;;;;5113578;28;20130;-81
2022/12/21 06:09:52;;;;;;;165.43;17.17;;;;;;;;;;5094879;28;20048;-82
2022/12/21 06:12:18;;;;;;;148.82;15.38;;;;;;;;;;5095400;28;20079;-82
2022/12/21 06:14:44;;;;;;;165.57;15.88;;;;;;;;;;5124105;27;20047;-82
2022/12/21 06:17:10;;;;;;;153.15;15.20;;;;;;;;;;5108924;28;20070;-84
2022/12/21 06:19:36;;;;;;;109.85;16.00;;;;;;;;;;5103440;28;20066;-85
2022/12/21 06:22:02;;;;;;;114.05;15.63;;;;;;;;;;5108930;27;20119;-85
2022/12/21 06:24:29;;;;;;;161.13;15.63;;;;;;;;;;5114562;27;20047;-84
2022/12/21 06:26:55;;;;;;;132.07;14.90;;;;;;;;;;5132190;27;20188;-85
2022/12/21 06:29:21;;;;;;;130.15;14.10;;;;;;;;;;5111868;27;20084;-85
2022/12/21 06:31:47;;;;;;;136.23;14.43;;;;;;;;;;5133720;27;20051;-84
2022/12/21 06:34:13;;;;;;;149.73;15.70;;;;;;;;;;5132400;27;20059;-84
2022/12/21 06:36:39;;;;;;;105.22;14.98;;;;;;;;;;5133500;27;20043;-84
2022/12/21 06:39:05;;;;;;;111.68;14.02;;;;;;;;;;5133232;28;20043;-85
2022/12/21 06:41:31;;;;;;;119.22;14.27;;;;;;;;;;5114932;28;20576;-84
2022/12/21 06:44:01;;;;;;;102.95;14.02;;;;;;;;;;5111770;28;20077;-85
2022/12/21 06:46:27;;;;;;;127.88;14.63;;;;;;;;;;5131919;28;20090;-85
2022/12/21 06:48:53;;;;;;;86.72;13.48;;;;;;;;;;5115043;28;20152;-85
2022/12/21 06:51:20;;;;;;;95.90;15.40;;;;;;;;;;5114468;28;20055;-85
2022/12/21 06:53:47;;;;;;;137.07;15.10;;;;;;;;;;5132553;28;20043;-85
2022/12/21 06:56:18;;;;;;;142.63;16.88;;;;;;;;;;5114593;28;20039;-85
2022/12/21 06:58:44;;;;;;;192.32;17.25;;;;;;;;;;5110420;28;20047;-84
2022/12/21 07:01:15;;;;;;;167.27;17.83;;;;;;;;;;5112620;28;20154;-85
2022/12/21 07:03:42;;;;;;;133.52;16.77;;;;;;;;;;5116347;28;20146;-85
2022/12/21 07:06:08;;;;;;;154.25;17.95;;;;;;;;;;5115277;28;20130;-85
2022/12/21 07:08:34;;;;;;;87.35;16.05;;;;;;;;;;5133428;28;20134;-85
2022/12/21 07:11:02;;;;;;;141.52;17.15;;;;;;;;;;5129546;28;20434;-85
2022/12/21 07:13:28;;;;;;;162.07;17.92;;;;;;;;;;5124150;28;20450;-86
2022/12/21 07:15:55;;;;;;;116.65;15.95;;;;;;;;;;5094892;28;20047;-86
2022/12/21 07:18:22;;;;;;;115.85;16.98;;;;;;;;;;5105252;28;20075;-86
2022/12/21 07:20:48;;;;;;;163.90;18.23;;;;;;;;;;5074124;28;20485;-86
2022/12/21 07:23:14;;;;;;;165.98;17.92;;;;;;;;;;5087146;28;20060;-85
2022/12/21 07:25:40;;;;;;;129.10;17.10;;;;;;;;;;5056857;28;20056;-86
2022/12/21 07:28:06;;;;;;;189.50;21.80;;;;;;;;;;5085463;27;20146;-86
2022/12/21 07:30:32;;;;;;;143.25;19.40;;;;;;;;;;5116466;27;20102;-86
2022/12/21 07:32:59;;;;;;;118.78;19.10;;;;;;;;;;5134025;27;20161;-86
2022/12/21 07:35:25;;;;;;;157.48;20.75;;;;;;;;;;5117644;27;20090;-85
2022/12/21 07:37:51;;;;;;;122.97;19.55;;;;;;;;;;5119116;27;20047;-85
2022/12/21 07:40:18;;;;;;;136.60;22.92;;;;;;;;;;5118784;27;20078;-85
2022/12/21 07:42:46;;;;;;;140.93;22.88;;;;;;;;;;5117444;27;20069;-85
2022/12/21 07:45:12;;;;;;;100.55;22.08;;;;;;;;;;5099390;28;20496;-85
2022/12/21 07:47:38;;;;;;;134.88;25.08;;;6.40;99.90;;;;;;5080792;28;20051;-86
2022/12/21 07:50:06;;;;;;;115.00;22.98;;;7.40;99.90;;;;;;5097905;28;20074;-88
2022/12/21 07:52:32;;;;;;;114.63;22.80;;;6.50;99.90;;;;;;5098025;28;20075;-86
2022/12/21 07:54:58;;;;;;;133.02;25.63;;;6.50;99.90;;;;;;5098256;28;20488;-83
2022/12/21 07:57:24;;;;;;;121.53;23.40;;;6.60;99.90;;;;;;5080535;28;20085;-79
2022/12/21 07:59:50;;;;;;;119.30;23.95;;;6.50;99.90;;;;;;5097101;28;20454;-81
2022/12/21 08:02:15;;;;;;;113.45;23.80;;;7.30;99.90;;;;;;5080407;28;20043;-78
2022/12/21 08:04:41;;;;;;;98.20;21.63;;;7.70;99.90;;;;;;5115042;28;20422;-81
2022/12/21 08:07:07;;;;;;;104.90;23.90;;;6.60;99.90;;;;;;5115257;28;20044;-80
2022/12/21 08:09:34;;;;;;;90.03;23.27;;;6.70;99.90;;;;;;5098248;28;20055;-84
2022/12/21 08:11:59;;;;;;;99.25;23.80;;;6.80;99.90;;;;;;5096173;28;20066;-84
2022/12/21 08:14:25;;;;;;;94.35;23.50;;;6.60;99.90;;;;;;5116364;27;20050;-86
2022/12/21 08:16:51;;;;;;;113.22;23.90;;;6.60;99.90;;;;;;5106425;28;20066;-86
2022/12/21 08:19:17;;;;;;;96.43;22.75;;;7.10;99.90;;;;;;5097807;28;20066;-88
2022/12/21 08:21:44;;;;;;;75.47;21.73;;;6.50;99.90;;;;;;5082873;27;20051;-84
2022/12/21 08:24:10;;;;;;;96.05;22.17;;;6.60;99.90;;;;;;5108693;28;20060;-84
2022/12/21 08:26:37;;;;;;;149.13;23.17;;;6.60;99.90;;;;;;5080169;28;20067;-83
2022/12/21 08:29:03;;;;;;;94.53;22.60;;;6.60;99.90;;;;;;5093180;27;20563;-86
2022/12/21 08:31:29;;;;;;;113.00;24.27;;;6.60;99.90;;;;;;5099886;27;20078;-85
2022/12/21 08:33:55;;;;;;;93.57;23.73;;;6.60;99.90;;;;;;5116591;27;20047;-86
2022/12/21 08:36:23;;;;;;;148.85;23.90;;;6.60;99.90;;;;;;5100265;27;20049;-86
2022/12/21 08:38:49;;;;;;;103.90;20.50;;;6.60;99.90;;;;;;5116267;27;20086;-86
2022/12/21 08:41:16;;;;;;;101.05;22.65;;;6.60;99.90;;;;;;5100187;27;20043;-86
2022/12/21 08:43:42;;;;;;;139.68;24.20;;;;;;;;;;5117158;27;20089;-86
2022/12/21 08:46:10;;;;;;;165.52;26.27;;;6.60;99.90;;;;;;5136022;27;20039;-86
2022/12/21 08:48:37;;;;;;;164.32;25.48;;;6.50;99.90;;;;;;5100176;27;20046;-86
2022/12/21 08:51:04;;;;;;;144.77;24.75;;;6.60;99.90;;;;;;5100128;27;20380;-86
2022/12/21 08:53:30;;;;;;;112.25;24.92;;;6.70;99.90;;;;;;5100008;27;20058;-86
2022/12/21 08:55:56;;;;;;;130.10;24.95;;;6.60;99.90;;;;;;5116169;27;20051;-86
2022/12/21 08:58:23;;;;;;;154.27;27.75;;;6.70;99.90;;;;;;5117464;27;20058;-86
2022/12/21 09:00:54;;;;;;;137.75;26.83;;;6.70;99.90;;;;;;5099858;27;20085;-86
2022/12/21 09:03:20;;;;;;;119.43;27.10;;;6.70;99.90;;;;;;5118103;27;20054;-86
2022/12/21 09:05:46;;;;;;;124.78;26.42;;;6.70;99.90;;;;;;5100469;27;20058;-86
2022/12/21 09:08:13;;;;;;;113.22;26.55;;;6.70;99.90;;;;;;5117466;27;20053;-86
2022/12/21 09:10:39;;;;;;;99.05;24.95;;;6.70;99.90;;;;;;5117097;27;20054;-86
2022/12/21 09:13:04;;;;;;;108.93;25.10;;;6.80;99.90;;;;;;5116614;27;20489;-86
2022/12/21 09:15:30;;;;;;;119.90;26.02;;;6.80;99.90;;;;;;5100376;27;20139;-86
2022/12/21 09:17:56;;;;;;;93.80;25.05;;;6.90;99.90;;;;;;5082584;28;20510;-85
2022/12/21 09:20:22;;;;;;;91.60;25.05;;;6.80;99.90;;;;;;5060207;28;20096;-86
2022/12/21 09:22:48;;;;;;;79.88;25.27;;;6.80;99.90;;;;;;5057904;28;20111;-85
2022/12/21 09:25:14;;;;;;;81.93;25.30;;;6.00;99.90;;;;;;5057929;28;20063;-86
2022/12/21 09:27:40;;;;;;;81.70;25.02;;;6.90;99.90;;;;;;5075882;28;20040;-86
2022/12/21 09:30:06;;;;;;;89.60;24.63;;;7.00;99.90;;;;;;5075649;28;20056;-87
2022/12/21 09:32:33;;;;;;;73.13;22.83;;;7.00;99.90;;;;;;5076618;28;20396;-86
2022/12/21 09:34:59;;;;;;;65.18;24.67;;;;;;;;;;5059477;28;20048;-86
2022/12/21 09:37:25;;;;;;;73.38;23.25;;;7.10;99.90;;;;;;5095502;28;20376;-86
2022/12/21 09:39:51;;;;;;;61.92;22.50;;;7.10;99.90;;;;;;5075383;28;20048;-87
2022/12/21 09:42:38;;;;;;;67.03;23.20;;;7.30;99.90;;;;;;5059540;28;20048;-87
2022/12/21 09:45:21;;;;;;;71.03;23.25;;;7.20;99.90;;;;;;5075512;28;20048;-86
2022/12/21 09:48:03;;;;;;;60.80;21.42;;;7.20;99.90;;;;;;5076419;28;20055;-86
2022/12/21 09:50:57;;;;;;;65.40;22.40;;;7.30;99.90;;;;;;5075399;28;20134;-86
2022/12/21 09:53:29;;;;;;;64.53;23.95;;;7.30;99.90;;;;;;5055791;28;20051;-86
2022/12/21 09:55:59;;;;;;;60.30;22.83;;;7.20;99.90;;;;;;5075122;28;20561;-87
2022/12/21 09:58:35;;;;;;;69.93;23.23;;;7.30;99.90;;;;;;5075504;28;20214;-88
2022/12/21 10:01:16;;;;;;;75.32;23.42;;;7.30;99.90;;;;;;5058826;28;20044;-87
2022/12/21 10:03:54;;;;;;;65.93;22.58;;;7.40;99.90;;;;;;5058510;28;20055;-87
2022/12/21 10:06:22;;;;;;;58.55;22.80;;;7.50;99.90;;;;;;5058088;28;20052;-88
2022/12/21 10:08:56;;;;;;;56.97;22.65;;;8.50;99.90;;;;;;5075389;28;20044;-87
2022/12/21 10:11:39;;;;;;;59.38;22.92;;;7.50;99.90;;;;;;5058721;28;20048;-87
2022/12/21 10:14:24;;;;;;;57.08;22.77;;;7.60;99.90;;;;;;5058277;28;20503;-88
2022/12/21 10:16:53;;;;;;;51.60;20.48;;;7.60;99.90;;;;;;5058989;28;20083;-88
2022/12/21 10:19:52;;;;;;;58.33;23.35;;;7.60;99.90;;;;;;5077831;28;20057;-87
2022/12/21 10:22:20;;;;;;;64.35;23.00;;;7.60;99.90;;;;;;5096383;28;20384;-87
2022/12/21 10:24:59;;;;;;;61.95;24.55;;;7.60;99.90;;;;;;5077812;28;20146;-87
2022/12/21 10:27:58;;;;;;;59.30;23.60;;;;;;;;;;5078099;28;20495;-87
2022/12/21 10:30:24;;;;;;;49.17;20.95;;;;;;;;;;5050935;28;20047;-87
2022/12/21 10:32:50;;;;;;;53.85;23.38;;;;;;;;;;5077907;28;20056;-86
2022/12/21 10:35:17;;;;;;;46.92;20.42;;;;;;;;;;5095308;28;20478;-87
2022/12/21 10:37:45;;;;;;;41.28;18.33;;;;;;;;;;5095350;28;20058;-87
2022/12/21 10:40:11;;;;;;;42.83;19.48;;;;;;;;;;5094872;28;20044;-87
2022/12/21 10:42:40;;;;;;;41.45;18.88;;;;;;;;;;5094991;28;20438;-87
2022/12/21 10:45:06;;;;;;;39.70;18.58;;;;;;;;;;5094305;28;20083;-87
2022/12/21 10:47:32;;;;;;;44.05;21.58;;;;;;;;;;5094277;28;20135;-87
2022/12/21 10:50:03;;;;;;;41.63;20.02;;;;;;;;;;5077594;28;20098;-87
2022/12/21 10:52:37;;;;;;;40.40;18.85;;;;;;;;;;5077999;28;20052;-87
2022/12/21 10:55:05;;;;;;;35.70;17.00;;;;;;;;;;5077907;28;20104;-87
2022/12/21 10:57:33;;;;;;;34.65;16.88;;;;;;;;;;5079168;28;20051;-87
2022/12/21 11:00:05;;;;;;;30.42;16.38;;;;;;;;;;5095348;28;20115;-87
2022/12/21 11:02:39;;;;;;;36.42;16.48;;;;;;;;;;5080014;28;20518;-87
2022/12/21 11:05:25;;;;;;;29.88;16.90;;;;;;;;;;5098796;28;20048;-87
2022/12/21 11:07:51;;;;;;;33.33;15.77;;;;;;;;;;5100857;28;20039;-86
2022/12/21 11:10:25;;;;;;;29.67;15.95;;;;;;;;;;5081908;28;20160;-87
2022/12/21 11:12:54;;;;;;;29.75;16.55;;;;;;;;;;5098287;28;20048;-86
2022/12/21 11:15:22;;;;;;;28.45;14.45;;;;;;;;;;5081695;28;20040;-86
2022/12/21 11:17:48;;;;;;;30.98;15.88;;;;;;;;;;5097741;28;20075;-86
2022/12/21 11:20:16;;;;;;;29.02;15.65;;;;;;;;;;5081341;28;20160;-87
2022/12/21 11:22:44;;;;;;;29.15;15.25;;;;;;;;;;5116604;28;20048;-86
2022/12/21 11:25:25;;;;;;;30.38;14.75;;;7.80;99.90;;;;;;5116174;28;20537;-87
2022/12/21 11:27:57;;;;;;;25.38;14.48;;;13.80;99.90;;;;;;5098348;28;20055;-87
2022/12/21 11:30:29;;;;;;;29.27;13.82;;;14.70;99.90;;;;;;5097970;28;20094;-87
2022/12/21 11:32:56;;;;;;;25.83;13.23;;;15.20;99.90;;;;;;5081559;28;20047;-87
2022/12/21 11:35:27;;;;;;;27.63;14.13;;;15.40;99.90;;;;;;5081059;28;20052;-87
2022/12/21 11:38:03;;;;;;;24.77;13.45;;;15.50;99.90;;;;;;5081499;28;20052;-87
2022/12/21 11:40:29;;;;;;;;;;;16.10;99.90;;;;;;5081617;28;20051;-85
2022/12/21 11:42:58;;;;;;;26.88;12.38;;;16.60;99.90;;;;;;5080863;28;19923;-88
2022/12/21 11:45:48;;;;;;;26.63;13.00;;;17.20;99.90;;;;;;5098315;28;20071;-88
2022/12/21 11:48:32;;;;;;;27.50;12.50;;;17.60;99.90;;;;;;5098028;28;20047;-88
2022/12/21 11:51:11;;;;;;;25.58;13.18;;;17.80;99.90;;;;;;5081075;28;20078;-88
2022/12/21 11:53:59;;;;;;;26.73;13.07;;;18.00;99.90;;;;;;5081184;28;20057;-87
2022/12/21 11:56:40;;;;;;;25.83;12.85;;;18.60;99.90;;;;;;5097855;28;20055;-87
2022/12/21 11:59:24;;;;;;;24.85;12.65;;;19.50;99.90;;;;;;5117117;28;20044;-85
2022/12/21 12:02:23;;;;;;;27.35;12.63;;;20.00;99.90;;;;;;5098690;28;20071;-85
2022/12/21 12:05:17;;;;;;;22.75;11.82;;;20.30;99.90;;;;;;5115947;28;20144;-87
2022/12/21 12:08:22;;;;;;;24.70;12.05;;;20.50;99.90;;;;;;5089510;27;20058;-88
2022/12/21 12:11:25;;;;;;;23.17;11.57;;;19.90;99.90;;;;;;5117318;27;20047;-88
2022/12/21 12:14:19;;;;;;;23.08;11.80;;;19.70;99.90;;;;;;5117736;27;20122;-88
2022/12/21 12:17:08;;;;;;;22.77;10.98;;;19.90;99.90;;;;;;5100939;27;20399;-88
2022/12/21 12:20:03;;;;;;;23.88;11.30;;;20.00;99.90;;;;;;5077389;28;20523;-87
2022/12/21 12:22:55;;;;;;;23.13;11.27;;;19.90;99.90;;;;;;5060109;28;20056;-88
2022/12/21 12:26:07;;;;;;;23.42;11.23;;;20.30;99.90;;;;;;5076976;28;20048;-87
2022/12/21 12:28:54;;;;;;;24.63;11.45;;;20.30;99.80;;;;;;5041312;28;20071;-86
2022/12/21 12:31:57;;;;;;;24.38;10.65;;;20.50;98.90;;;;;;5076949;28;20068;-86
2022/12/21 12:35:03;;;;;;;24.60;11.73;;;20.90;98.30;;;;;;5057149;28;20048;-86
2022/12/21 12:37:29;;;;;;;;;;;;;;;;;;5058550;28;20052;-88
2022/12/21 12:39:55;;;;;;;;;;;;;;;;;;5057275;28;19920;-86
2022/12/21 12:42:33;;;;;;;;;;;21.30;97.80;;;;;;5077053;28;19926;-85
2022/12/21 12:45:11;;;;;;;20.38;10.05;;;21.10;97.20;;;;;;5077082;28;19924;-86
2022/12/21 12:47:53;;;;;;;22.55;10.23;;;20.50;98.10;;;;;;5076709;28;20079;-86
2022/12/21 12:50:34;;;;;;;24.80;10.82;;;20.10;97.80;;;;;;5059667;28;20051;-86
2022/12/21 12:53:24;;;;;;;24.63;10.95;;;20.20;98.50;;;;;;5094586;28;20055;-88
2022/12/21 12:56:17;;;;;;;24.92;10.88;;;20.00;98.40;;;;;;5059457;28;20052;-88
2022/12/21 12:59:08;;;;;;;22.17;11.15;;;19.30;99.20;;;;;;5093829;28;20051;-88
2022/12/21 13:01:56;;;;;;;32.10;12.23;;;18.30;99.90;;;;;;5090207;28;20056;-87
2022/12/21 13:04:56;;;;;;;27.00;12.45;;;17.00;99.90;;;;;;5093842;28;20056;-87
2022/12/21 13:07:25;;;;;;;28.83;11.68;;;;;;;;;;5093319;28;20052;-87
2022/12/21 13:10:06;;;;;;;28.05;12.00;;;15.70;99.90;;;;;;5093383;28;20048;-87
2022/12/21 13:12:50;;;;;;;25.02;11.38;;;14.60;99.90;;;;;;5093273;28;20048;-87
2022/12/21 13:15:23;;;;;;;27.17;12.70;;;;;;;;;;5109675;28;20048;-86
2022/12/21 13:17:54;;;;;;;23.88;11.65;;;;;;;;;;5095936;28;20211;-87
2022/12/21 13:20:21;;;;;;;28.15;12.38;;;;;;;;;;5078949;28;20054;-86
2022/12/21 13:22:52;;;;;;;28.27;12.25;;;;;;;;;;5114120;28;20101;-87
2022/12/21 13:25:21;;;;;;;28.27;13.43;;;;;;;;;;5095542;28;20071;-87
2022/12/21 13:27:51;;;;;;;25.42;11.65;;;;;;;;;;5095833;28;20458;-87
2022/12/21 13:30:18;;;;;;;25.83;12.18;;;;;;;;;;5079869;28;20055;-86
2022/12/21 13:32:46;;;;;;;26.17;13.07;;;;;;;;;;5114004;28;20054;-87
2022/12/21 13:35:15;;;;;;;29.13;12.65;;;;;;;;;;5094762;28;20153;-86
2022/12/21 13:37:43;;;;;;;30.50;14.27;;;;;;;;;;5114176;28;20109;-87
2022/12/21 13:40:19;;;;;;;24.75;13.57;;;;;;;;;;5092735;28;20085;-87
2022/12/21 13:42:49;;;;;;;31.25;13.35;;;;;;;;;;5113960;28;20079;-87
2022/12/21 13:45:15;;;;;;;28.35;13.75;;;;;;;;;;5095500;28;20047;-87
2022/12/21 13:47:42;;;;;;;30.05;15.48;;;;;;;;;;5079103;28;20040;-87
2022/12/21 13:50:11;;;;;;;31.45;15.63;;;;;;;;;;5095788;28;20047;-87
2022/12/21 13:53:02;;;;;;;32.28;15.20;;;;;;;;;;5097026;28;20110;-85
2022/12/21 13:55:34;;;;;;;33.67;15.27;;;;;;;;;;5094270;28;20061;-85
2022/12/21 13:58:26;;;;;;;32.58;16.13;;;;;;;;;;5078790;28;20085;-86
2022/12/21 14:01:14;;;;;;;24.42;14.63;;;;;;;;;;5093760;28;20043;-86
2022/12/21 14:03:55;;;;;;;32.90;17.02;;;;;;;;;;5078670;28;20054;-85
2022/12/21 14:06:30;;;;;;;28.48;14.98;;;;;;;;;;5078715;28;20108;-85
2022/12/21 14:09:05;;;;;;;35.23;17.30;;;;;;;;;;5078330;28;20047;-87